sensor_id;sensor_type;location;lat;lon;timestamp;P1;durP1;ratioP1;P2;durP2;ratioP2
63621;SDS011;49770;47.544;19.074;2022-08-03T05:00:09;8.90;;;7.30;;
63621;SDS011;49770;47.544;19.074;2022-08-03T05:18:16;6.93;;;6.25;;
63621;SDS011;49770;47.544;19.074;2022-08-03T05:21:20;8.65;;;6.87;;
63621;SDS011;49770;47.544;19.074;2022-08-03T05:27:39;8.38;;;6.50;;
63621;SDS011;49770;47.544;19.074;2022-08-03T05:30:42;7.32;;;6.62;;
63621;SDS011;49770;47.544;19.074;2022-08-03T05:33:45;8.07;;;6.55;;
63621;SDS011;49770;47.544;19.074;2022-08-03T05:36:49;6.72;;;6.10;;
63621;SDS011;49770;47.544;19.074;2022-08-03T05:39:52;6.70;;;6.10;;
63621;SDS011;49770;47.544;19.074;2022-08-03T05:42:55;8.80;;;5.87;;
63621;SDS011;49770;47.544;19.074;2022-08-03T05:45:59;6.15;;;5.65;;
63621;SDS011;49770;47.544;19.074;2022-08-03T05:49:14;6.00;;;5.40;;
63621;SDS011;49770;47.544;19.074;2022-08-03T05:52:18;7.57;;;5.70;;
63621;SDS011;49770;47.544;19.074;2022-08-03T05:55:20;8.77;;;5.60;;
63621;SDS011;49770;47.544;19.074;2022-08-03T05:58:23;6.30;;;5.68;;
63621;SDS011;49770;47.544;19.074;2022-08-03T06:01:31;6.18;;;5.57;;
63621;SDS011;49770;47.544;19.074;2022-08-03T06:04:34;6.80;;;6.10;;
63621;SDS011;49770;47.544;19.074;2022-08-03T06:07:40;9.82;;;5.95;;
63621;SDS011;49770;47.544;19.074;2022-08-03T06:10:44;8.13;;;6.10;;
63621;SDS011;49770;47.544;19.074;2022-08-03T07:38:37;8.95;;;7.03;;
63621;SDS011;49770;47.544;19.074;2022-08-03T07:41:40;8.85;;;7.00;;
63621;SDS011;49770;47.544;19.074;2022-08-03T07:48:55;9.55;;;6.82;;
63621;SDS011;49770;47.544;19.074;2022-08-03T07:51:58;10.02;;;6.85;;
63621;SDS011;49770;47.544;19.074;2022-08-03T07:55:23;7.53;;;6.93;;
63621;SDS011;49770;47.544;19.074;2022-08-03T07:58:27;8.38;;;7.35;;
63621;SDS011;49770;47.544;19.074;2022-08-03T08:12:20;11.65;;;7.00;;
63621;SDS011;49770;47.544;19.074;2022-08-03T08:15:23;8.43;;;6.72;;
63621;SDS011;49770;47.544;19.074;2022-08-03T08:29:39;7.07;;;6.37;;
63621;SDS011;49770;47.544;19.074;2022-08-03T08:32:54;8.00;;;7.20;;
63621;SDS011;49770;47.544;19.074;2022-08-03T08:43:20;7.35;;;6.75;;
63621;SDS011;49770;47.544;19.074;2022-08-03T08:46:23;8.88;;;6.70;;
63621;SDS011;49770;47.544;19.074;2022-08-03T08:49:26;8.27;;;6.55;;
63621;SDS011;49770;47.544;19.074;2022-08-03T09:11:30;7.65;;;6.28;;
63621;SDS011;49770;47.544;19.074;2022-08-03T09:18:41;7.68;;;6.32;;
63621;SDS011;49770;47.544;19.074;2022-08-03T09:22:05;11.70;;;6.43;;
63621;SDS011;49770;47.544;19.074;2022-08-03T09:25:10;7.53;;;6.10;;
63621;SDS011;49770;47.544;19.074;2022-08-03T09:28:26;8.35;;;6.07;;
63621;SDS011;49770;47.544;19.074;2022-08-03T09:32:00;7.85;;;5.90;;
63621;SDS011;49770;47.544;19.074;2022-08-03T09:35:05;6.97;;;5.95;;
63621;SDS011;49770;47.544;19.074;2022-08-03T09:38:11;6.72;;;6.05;;
63621;SDS011;49770;47.544;19.074;2022-08-03T10:46:23;6.07;;;5.00;;
63621;SDS011;49770;47.544;19.074;2022-08-03T11:58:47;5.00;;;4.43;;
63621;SDS011;49770;47.544;19.074;2022-08-03T12:02:14;5.00;;;4.60;;
63621;SDS011;49770;47.544;19.074;2022-08-03T12:16:17;6.47;;;4.10;;
63621;SDS011;49770;47.544;19.074;2022-08-03T12:19:21;4.77;;;4.37;;
63621;SDS011;49770;47.544;19.074;2022-08-03T12:23:00;4.47;;;4.10;;
63621;SDS011;49770;47.544;19.074;2022-08-03T12:26:00;4.47;;;4.07;;
63621;SDS011;49770;47.544;19.074;2022-08-03T12:48:28;5.25;;;4.10;;
63621;SDS011;49770;47.544;19.074;2022-08-03T12:51:36;4.30;;;3.90;;
63621;SDS011;49770;47.544;19.074;2022-08-03T13:02:30;4.97;;;4.15;;
63621;SDS011;49770;47.544;19.074;2022-08-03T13:09:20;4.57;;;4.10;;
63621;SDS011;49770;47.544;19.074;2022-08-03T13:19:46;5.28;;;4.00;;
63621;SDS011;49770;47.544;19.074;2022-08-03T13:22:50;4.60;;;3.95;;
63621;SDS011;49770;47.544;19.074;2022-08-03T13:25:52;4.85;;;4.12;;
63621;SDS011;49770;47.544;19.074;2022-08-03T13:28:57;4.37;;;3.97;;
63621;SDS011;49770;47.544;19.074;2022-08-03T13:32:03;4.35;;;3.95;;
63621;SDS011;49770;47.544;19.074;2022-08-03T13:46:14;4.25;;;3.80;;
63621;SDS011;49770;47.544;19.074;2022-08-03T13:49:21;4.78;;;4.28;;
63621;SDS011;49770;47.544;19.074;2022-08-03T14:03:54;4.72;;;3.87;;
63621;SDS011;49770;47.544;19.074;2022-08-03T14:06:59;7.47;;;4.45;;
63621;SDS011;49770;47.544;19.074;2022-08-03T14:10:05;4.75;;;3.97;;
63621;SDS011;49770;47.544;19.074;2022-08-03T14:16:47;5.00;;;4.20;;
63621;SDS011;49770;47.544;19.074;2022-08-03T14:19:51;4.47;;;4.07;;
63621;SDS011;49770;47.544;19.074;2022-08-03T14:30:18;7.25;;;4.15;;
63621;SDS011;49770;47.544;19.074;2022-08-03T14:33:21;3.58;;;3.37;;
63621;SDS011;49770;47.544;19.074;2022-08-03T14:40:03;6.32;;;4.03;;
63621;SDS011;49770;47.544;19.074;2022-08-03T14:46:51;4.40;;;4.00;;
63621;SDS011;49770;47.544;19.074;2022-08-03T14:49:57;4.07;;;3.67;;
63621;SDS011;49770;47.544;19.074;2022-08-03T14:53:20;4.18;;;3.87;;
63621;SDS011;49770;47.544;19.074;2022-08-03T14:56:23;4.32;;;3.92;;
63621;SDS011;49770;47.544;19.074;2022-08-03T14:59:26;4.37;;;4.07;;
63621;SDS011;49770;47.544;19.074;2022-08-03T15:02:49;4.37;;;4.05;;
63621;SDS011;49770;47.544;19.074;2022-08-03T15:05:53;6.12;;;3.80;;
63621;SDS011;49770;47.544;19.074;2022-08-03T15:08:57;4.45;;;4.05;;
63621;SDS011;49770;47.544;19.074;2022-08-03T15:12:20;5.55;;;4.10;;
63621;SDS011;49770;47.544;19.074;2022-08-03T15:15:24;4.35;;;4.00;;
